^^
Your Local Weather - Clay, NY Station Historical Data
Daily Summary for November 6, 2017 Units:  English    Metric   Both
« Previous Day
Next Day »
Daily Weekly Monthly Yearly Custom
  High: Low: Average:
Temperature: 61.1 °F 40.1 °F 49.3 °F
Dew Point: 56.3 °F 30.4 °F 42.6 °F
Humidity: 93% 65% 78%
Wind Speed: 6.0mph 0.0mph 2.6mph
Wind Gust: 11.0mph - -
Wind- - WNW
Pressure: 30.20 in 29.71 in -
Precipitation: 0.04 in    
Historical Graphs
 
 
Tabular Data for November 6, 2017
Time Temperature Dew Point Pressure Wind Wind Speed Wind Gust Humidity Rainfall Rate (Hourly) solar
00:02 57.0 °F 55.0 °F 29.75 in Calm     93% 0.00 in 0 W/m2
00:08 57.0 °F 55.0 °F 29.75 in Calm   1.0 mph 93% 0.00 in 0 W/m2
00:14 57.3 °F 55.3 °F 29.75 in SSE 2.0 mph 3.0 mph 93% 0.00 in 0 W/m2
00:20 57.8 °F 55.8 °F 29.75 in South 3.0 mph 3.0 mph 93% 0.00 in 0 W/m2
00:26 58.2 °F 56.2 °F 29.75 in SSW 3.0 mph 3.0 mph 93% 0.00 in 0 W/m2
00:32 58.4 °F 56.1 °F 29.75 in SSW 2.0 mph 5.0 mph 92% 0.00 in 0 W/m2
00:38 58.9 °F 56.3 °F 29.74 in South 3.0 mph 5.0 mph 91% 0.00 in 0 W/m2
00:46 59.0 °F 56.1 °F 29.74 in SSW 3.0 mph 3.0 mph 90% 0.00 in 0 W/m2
00:52 59.0 °F 55.8 °F 29.74 in SSW 3.0 mph 5.0 mph 89% 0.00 in 0 W/m2
00:58 59.1 °F 55.9 °F 29.74 in SSW 3.0 mph 5.0 mph 89% 0.00 in 0 W/m2
01:04 59.1 °F 55.9 °F 29.74 in SSW 2.0 mph 3.0 mph 89% 0.00 in 0 W/m2
01:10 59.1 °F 55.5 °F 29.74 in SW 2.0 mph 5.0 mph 88% 0.00 in 0 W/m2
01:16 59.3 °F 55.7 °F 29.75 in SSW 2.0 mph 5.0 mph 88% 0.00 in 0 W/m2
01:22 59.4 °F 55.5 °F 29.75 in South 2.0 mph 4.0 mph 87% 0.00 in 0 W/m2
01:30 59.6 °F 55.7 °F 29.74 in South 3.0 mph 6.0 mph 87% 0.00 in 0 W/m2
01:36 59.8 °F 55.6 °F 29.74 in SSW 3.0 mph 6.0 mph 86% 0.00 in 0 W/m2
01:42 60.0 °F 55.5 °F 29.74 in South 4.0 mph 4.0 mph 85% 0.00 in 0 W/m2
01:48 60.0 °F 55.2 °F 29.74 in SSW 4.0 mph 5.0 mph 84% 0.00 in 0 W/m2
01:54 60.0 °F 55.2 °F 29.74 in South 3.0 mph 9.0 mph 84% 0.00 in 0 W/m2
02:00 60.1 °F 55.2 °F 29.74 in SW 4.0 mph 4.0 mph 84% 0.00 in 0 W/m2
02:06 60.1 °F 55.2 °F 29.73 in South 4.0 mph 4.0 mph 84% 0.00 in 0 W/m2
02:12 60.1 °F 55.2 °F 29.73 in South 3.0 mph 5.0 mph 84% 0.00 in 0 W/m2
02:18 60.2 °F 55.3 °F 29.73 in South 4.0 mph 6.0 mph 84% 0.00 in 0 W/m2
02:24 60.3 °F 55.1 °F 29.73 in South 3.0 mph 6.0 mph 83% 0.00 in 0 W/m2
02:30 60.4 °F 55.2 °F 29.72 in South 3.0 mph 3.0 mph 83% 0.00 in 0 W/m2
02:36 60.7 °F 55.2 °F 29.72 in SSE 4.0 mph 4.0 mph 82% 0.00 in 0 W/m2
02:42 60.9 °F 55.4 °F 29.72 in South 4.0 mph 4.0 mph 82% 0.00 in 0 W/m2
02:48 60.9 °F 55.0 °F 29.72 in South 4.0 mph 7.0 mph 81% 0.00 in 0 W/m2
02:54 60.9 °F 55.0 °F 29.71 in SSW 4.0 mph 5.0 mph 81% 0.00 in 0 W/m2
03:00 60.9 °F 54.7 °F 29.71 in South 3.0 mph 6.0 mph 80% 0.00 in 0 W/m2
03:06 60.8 °F 54.6 °F 29.71 in SSW 3.0 mph 6.0 mph 80% 0.00 in 0 W/m2
03:12 60.9 °F 54.7 °F 29.72 in South 4.0 mph 8.0 mph 80% 0.00 in 0 W/m2
03:18 61.0 °F 54.8 °F 29.72 in SW 4.0 mph 8.0 mph 80% 0.00 in 0 W/m2
03:24 61.1 °F 54.9 °F 29.72 in SW 4.0 mph 5.0 mph 80% 0.00 in 0 W/m2
03:30 61.0 °F 54.8 °F 29.72 in SSW 4.0 mph 4.0 mph 80% 0.00 in 0 W/m2
03:36 61.0 °F 54.8 °F 29.72 in SSW 4.0 mph 5.0 mph 80% 0.00 in 0 W/m2
03:42 60.9 °F 54.7 °F 29.72 in SSW 3.0 mph 5.0 mph 80% 0.00 in 0 W/m2
03:48 60.9 °F 54.7 °F 29.73 in SW 2.0 mph 5.0 mph 80% 0.00 in 0 W/m2
03:54 60.7 °F 54.5 °F 29.73 in SW 2.0 mph 3.0 mph 80% 0.00 in 0 W/m2
04:00 60.7 °F 54.5 °F 29.74 in SW 2.0 mph 2.0 mph 80% 0.00 in 0 W/m2
04:06 60.7 °F 54.5 °F 29.73 in SSW 2.0 mph 4.0 mph 80% 0.00 in 0 W/m2
04:12 60.8 °F 54.6 °F 29.73 in SW 2.0 mph 4.0 mph 80% 0.00 in 0 W/m2
04:18 60.8 °F 54.6 °F 29.74 in WSW 3.0 mph 5.0 mph 80% 0.00 in 0 W/m2
04:24 60.9 °F 54.7 °F 29.74 in SW 2.0 mph 5.0 mph 80% 0.00 in 0 W/m2
04:30 61.0 °F 54.8 °F 29.73 in West 2.0 mph 5.0 mph 80% 0.00 in 0 W/m2
04:36 60.9 °F 54.7 °F 29.74 in West 3.0 mph 5.0 mph 80% 0.00 in 0 W/m2
04:42 60.7 °F 54.8 °F 29.74 in SSW 2.0 mph 8.0 mph 81% 0.00 in 0 W/m2
04:48 60.6 °F 54.7 °F 29.74 in SW 2.0 mph 8.0 mph 81% 0.00 in 0 W/m2
04:54 60.5 °F 54.6 °F 29.73 in SW 2.0 mph 2.0 mph 81% 0.00 in 0 W/m2
05:00 60.4 °F 54.5 °F 29.74 in SW 2.0 mph 2.0 mph 81% 0.00 in 0 W/m2
05:06 60.4 °F 54.9 °F 29.74 in SSW 3.0 mph 5.0 mph 82% 0.00 in 0 W/m2
05:12 60.5 °F 55.0 °F 29.74 in SSW 3.0 mph 4.0 mph 82% 0.00 in 0 W/m2
05:18 60.5 °F 55.0 °F 29.74 in WSW 3.0 mph 4.0 mph 82% 0.00 in 0 W/m2
05:24 60.4 °F 54.9 °F 29.74 in WSW 1.0 mph 3.0 mph 82% 0.00 in 0 W/m2
05:30 60.2 °F 55.0 °F 29.74 in WSW 1.0 mph 1.0 mph 83% 0.00 in 0 W/m2
05:42 60.1 °F 54.9 °F 29.75 in WSW 1.0 mph 1.0 mph 83% 0.00 in 0 W/m2
05:48 60.0 °F 54.8 °F 29.75 in Calm   3.0 mph 83% 0.00 in 0 W/m2
06:00 59.8 °F 55.0 °F 29.75 in Calm     84% 0.00 in 0 W/m2
06:06 59.7 °F 54.9 °F 29.76 in Calm   1.0 mph 84% 0.00 in 0 W/m2
06:12 59.6 °F 54.8 °F 29.77 in WSW 1.0 mph 2.0 mph 84% 0.00 in 0 W/m2
06:18 59.5 °F 55.0 °F 29.77 in NW 2.0 mph 3.0 mph 85% 0.00 in 0 W/m2
06:24 58.9 °F 55.0 °F 29.78 in West 3.0 mph 3.0 mph 87% 0.00 in 0 W/m2
06:30 58.0 °F 54.5 °F 29.78 in NW 3.0 mph 3.0 mph 88% 0.00 in 0 W/m2
06:36 56.8 °F 53.3 °F 29.78 in WNW 4.0 mph 5.0 mph 88% 0.00 in 0 W/m2
06:42 55.4 °F 52.2 °F 29.80 in NW 5.0 mph 5.0 mph 89% 0.00 in 0 W/m2
06:48 54.6 °F 51.4 °F 29.80 in WNW 4.0 mph 5.0 mph 89% 0.00 in 0 W/m2
06:54 54.1 °F 51.2 °F 29.80 in WNW 3.0 mph 6.0 mph 90% 0.00 in 0 W/m2
07:00 53.6 °F 50.7 °F 29.81 in WNW 4.0 mph 5.0 mph 90% 0.00 in 0 W/m2
07:06 53.4 °F 50.8 °F 29.81 in WNW 3.0 mph 5.0 mph 91% 0.00 in 0 W/m2
07:12 53.2 °F 50.6 °F 29.81 in WNW 2.0 mph 3.0 mph 91% 0.00 in 7 W/m2
07:18 53.0 °F 50.4 °F 29.82 in NW 2.0 mph 3.0 mph 91% 0.00 in 11 W/m2
07:24 52.8 °F 50.2 °F 29.82 in WNW 3.0 mph 5.0 mph 91% 0.00 in 14 W/m2
07:30 52.3 °F 49.8 °F 29.83 in WNW 3.0 mph 3.0 mph 91% 0.00 in 14 W/m2
07:42 52.1 °F 49.8 °F 29.84 in NW 2.0 mph 2.0 mph 92% 0.00 in 18 W/m2
07:48 52.0 °F 49.7 °F 29.84 in NW 1.0 mph 3.0 mph 92% 0.00 in 33 W/m2
07:54 52.0 °F 49.7 °F 29.84 in NW 2.0 mph 3.0 mph 92% 0.00 in 46 W/m2
08:00 51.9 °F 49.6 °F 29.84 in WNW 2.0 mph 4.0 mph 92% 0.00 in 40 W/m2
08:06 51.9 °F 49.6 °F 29.85 in WNW 2.0 mph 4.0 mph 92% 0.00 in 39 W/m2
08:12 51.7 °F 49.5 °F 29.85 in WNW 2.0 mph 3.0 mph 92% 0.00 in 35 W/m2
08:18 51.6 °F 49.4 °F 29.86 in NW 3.0 mph 4.0 mph 92% 0.00 in 40 W/m2
08:24 51.5 °F 49.3 °F 29.86 in WNW 3.0 mph 4.0 mph 92% 0.00 in 28 W/m2
08:30 51.2 °F 49.0 °F 29.86 in WNW 3.0 mph 4.0 mph 92% 0.00 in 30 W/m2
08:36 50.9 °F 48.7 °F 29.86 in NW 3.0 mph 4.0 mph 92% 0.00 in 37 W/m2
08:42 50.8 °F 48.6 °F 29.86 in NW 2.0 mph 3.0 mph 92% 0.00 in 60 W/m2
08:48 50.4 °F 48.2 °F 29.88 in WNW 3.0 mph 7.0 mph 92% 0.00 in 49 W/m2
08:54 50.1 °F 47.9 °F 29.88 in West 4.0 mph 4.0 mph 92% 0.00 in 49 W/m2
09:00 49.8 °F 47.6 °F 29.88 in WNW 4.0 mph 5.0 mph 92% 0.00 in 32 W/m2
09:06 49.2 °F 46.7 °F 29.88 in WNW 4.0 mph 6.0 mph 91% 0.00 in 23 W/m2
09:12 49.0 °F 46.8 °F 29.88 in NW 3.0 mph 4.0 mph 92% 0.00 in 30 W/m2
09:18 48.8 °F 46.6 °F 29.89 in NW 3.0 mph 6.0 mph 92% 0.00 in 33 W/m2
09:24 48.7 °F 46.5 °F 29.89 in WNW 3.0 mph 3.0 mph 92% 0.00 in 35 W/m2
09:30 48.6 °F 46.4 °F 29.89 in WNW 3.0 mph 3.0 mph 92% 0.00 in 30 W/m2
09:36 48.4 °F 46.2 °F 29.89 in WNW 2.0 mph 4.0 mph 92% 0.00 in 28 W/m2
09:42 48.3 °F 46.1 °F 29.89 in WNW 3.0 mph 3.0 mph 92% 0.00 in 33 W/m2
09:48 48.2 °F 46.0 °F 29.90 in NW 2.0 mph 4.0 mph 92% 0.00 in 25 W/m2
09:54 48.1 °F 45.9 °F 29.90 in NW 3.0 mph 8.0 mph 92% 0.00 in 30 W/m2
10:00 48.0 °F 45.8 °F 29.90 in NW 3.0 mph 3.0 mph 92% 0.00 in 35 W/m2
10:06 48.0 °F 45.8 °F 29.90 in NW 3.0 mph 3.0 mph 92% 0.00 in 47 W/m2
10:12 48.0 °F 45.8 °F 29.90 in NW 2.0 mph 2.0 mph 92% 0.00 in 72 W/m2
10:18 48.1 °F 45.9 °F 29.91 in WSW 2.0 mph 4.0 mph 92% 0.00 in 62 W/m2
10:22 48.0 °F 45.8 °F 29.91 in WNW 2.0 mph 4.0 mph 92% 0.00 in 63 W/m2
10:28 47.8 °F 45.3 °F 29.91 in WNW 4.0 mph 4.0 mph 91% 0.00 in 54 W/m2
10:34 47.6 °F 45.1 °F 29.91 in NW 4.0 mph 5.0 mph 91% 0.00 in 69 W/m2
10:40 47.4 °F 44.6 °F 29.92 in WNW 4.0 mph 4.0 mph 90% 0.00 in 70 W/m2
10:52 47.2 °F 44.4 °F 29.93 in NW 2.0 mph 2.0 mph 90% 0.00 in 28 W/m2
10:58 47.0 °F 44.2 °F 29.93 in West 2.0 mph 2.0 mph 90% 0.00 in 25 W/m2
11:04 46.8 °F 44.0 °F 29.93 in West 2.0 mph 5.0 mph 90% 0.00 in 21 W/m2
11:10 46.7 °F 43.9 °F 29.93 in WNW 3.0 mph 3.0 mph 90% 0.00 in 23 W/m2
11:16 46.6 °F 43.5 °F 29.94 in WNW 4.0 mph 7.0 mph 89% 0.00 in 25 W/m2
11:22 46.6 °F 43.5 °F 29.94 in WNW 3.0 mph 6.0 mph 89% 0.00 in 33 W/m2
11:28 46.5 °F 43.1 °F 29.94 in WNW 3.0 mph 9.0 mph 88% 0.00 in 56 W/m2
11:34 46.3 °F 42.6 °F 29.94 in WNW 4.0 mph 5.0 mph 87% 0.00 in 40 W/m2
11:40 46.1 °F 41.8 °F 29.95 in NW 3.0 mph 3.0 mph 85% 0.00 in 90 W/m2
11:46 46.2 °F 41.6 °F 29.94 in WNW 3.0 mph 4.0 mph 84% 0.00 in 144 W/m2
11:52 46.3 °F 41.4 °F 29.95 in NW 3.0 mph 3.0 mph 83% 0.00 in 77 W/m2
11:58 46.2 °F 41.0 °F 29.95 in WNW 3.0 mph 4.0 mph 82% 0.00 in 90 W/m2
12:04 46.2 °F 41.0 °F 29.95 in WNW 3.0 mph 4.0 mph 82% 0.00 in 77 W/m2
12:10 46.1 °F 40.6 °F 29.95 in NW 3.0 mph 3.0 mph 81% 0.00 in 70 W/m2
12:16 46.2 °F 40.7 °F 29.95 in WNW 4.0 mph 7.0 mph 81% 0.00 in 81 W/m2
12:22 46.2 °F 40.4 °F 29.95 in NNW 4.0 mph 5.0 mph 80% 0.00 in 95 W/m2
12:28 46.3 °F 40.5 °F 29.96 in WNW 3.0 mph 5.0 mph 80% 0.00 in 81 W/m2
12:34 46.4 °F 40.2 °F 29.97 in WNW 2.0 mph 4.0 mph 79% 0.00 in 127 W/m2
12:40 46.4 °F 39.2 °F 29.97 in WNW 4.0 mph 4.0 mph 76% 0.00 in 123 W/m2
12:46 46.4 °F 39.2 °F 29.97 in WNW 5.0 mph 8.0 mph 76% 0.00 in 114 W/m2
12:52 46.2 °F 38.4 °F 29.98 in WNW 5.0 mph 7.0 mph 74% 0.00 in 111 W/m2
12:58 46.2 °F 38.4 °F 29.98 in NW 4.0 mph 7.0 mph 74% 0.00 in 137 W/m2
13:04 46.3 °F 38.5 °F 29.99 in NW 3.0 mph 4.0 mph 74% 0.00 in 109 W/m2
13:10 46.4 °F 38.9 °F 29.99 in NNW 3.0 mph 3.0 mph 75% 0.00 in 158 W/m2
13:16 46.6 °F 39.1 °F 29.99 in WNW 3.0 mph 5.0 mph 75% 0.00 in 93 W/m2
13:22 46.5 °F 38.3 °F 29.99 in WNW 3.0 mph 4.0 mph 73% 0.00 in 132 W/m2
13:28 46.3 °F 38.1 °F 30.00 in WNW 5.0 mph 8.0 mph 73% 0.00 in 139 W/m2
13:34 46.3 °F 38.1 °F 30.00 in WNW 5.0 mph 7.0 mph 73% 0.00 in 155 W/m2
13:40 46.2 °F 37.7 °F 30.00 in WNW 5.0 mph 5.0 mph 72% 0.00 in 111 W/m2
13:46 46.2 °F 37.7 °F 30.00 in West 5.0 mph 8.0 mph 72% 0.00 in 148 W/m2
13:52 46.3 °F 37.4 °F 30.00 in NNW 5.0 mph 5.0 mph 71% 0.00 in 130 W/m2
13:58 46.2 °F 37.3 °F 30.00 in WNW 4.0 mph 11.0 mph 71% 0.00 in 100 W/m2
14:04 46.2 °F 37.7 °F 30.01 in WNW 4.0 mph 5.0 mph 72% 0.00 in 91 W/m2
14:10 46.2 °F 37.7 °F 30.01 in WNW 3.0 mph 4.0 mph 72% 0.00 in 163 W/m2
14:16 46.3 °F 37.4 °F 30.02 in WSW 4.0 mph 4.0 mph 71% 0.00 in 127 W/m2
14:22 46.1 °F 36.1 °F 30.02 in NNW 4.0 mph 9.0 mph 68% 0.00 in 125 W/m2
14:28 46.0 °F 36.4 °F 30.02 in NW 5.0 mph 9.0 mph 69% 0.00 in 172 W/m2
14:34 46.0 °F 36.0 °F 30.03 in NW 6.0 mph 7.0 mph 68% 0.00 in 193 W/m2
14:46 47.1 °F 35.9 °F 30.03 in NW 5.0 mph 6.0 mph 65% 0.00 in 162 W/m2
14:52 46.9 °F 36.5 °F 30.03 in WNW 5.0 mph 5.0 mph 67% 0.00 in 181 W/m2
14:58 46.4 °F 36.0 °F 30.04 in WNW 5.0 mph 8.0 mph 67% 0.00 in 95 W/m2
15:04 46.1 °F 35.4 °F 30.04 in West 4.0 mph 7.0 mph 66% 0.00 in 151 W/m2
15:10 45.9 °F 35.6 °F 30.05 in WNW 4.0 mph 6.0 mph 67% 0.00 in 132 W/m2
15:16 45.7 °F 35.4 °F 30.05 in WNW 4.0 mph 6.0 mph 67% 0.00 in 176 W/m2
15:22 45.4 °F 35.1 °F 30.05 in NW 5.0 mph 5.0 mph 67% 0.00 in 42 W/m2
15:28 45.1 °F 35.2 °F 30.06 in WNW 4.0 mph 5.0 mph 68% 0.00 in 39 W/m2
15:34 44.9 °F 35.3 °F 30.06 in NW 3.0 mph 4.0 mph 69% 0.00 in 54 W/m2
15:40 44.8 °F 34.9 °F 30.06 in WNW 3.0 mph 4.0 mph 68% 0.00 in 111 W/m2
15:46 45.0 °F 34.7 °F 30.06 in WNW 5.0 mph 6.0 mph 67% 0.00 in 109 W/m2
15:52 45.0 °F 34.7 °F 30.06 in WNW 4.0 mph 5.0 mph 67% 0.00 in 63 W/m2
15:58 44.9 °F 34.6 °F 30.07 in WNW 5.0 mph 7.0 mph 67% 0.00 in 51 W/m2
16:04 44.8 °F 34.5 °F 30.07 in WNW 5.0 mph 5.0 mph 67% 0.00 in 32 W/m2
16:10 44.7 °F 34.4 °F 30.07 in WNW 5.0 mph 5.0 mph 67% 0.00 in 21 W/m2
16:16 44.6 °F 34.7 °F 30.07 in WNW 3.0 mph 5.0 mph 68% 0.00 in 18 W/m2
16:22 44.4 °F 34.5 °F 30.08 in NNW 3.0 mph 6.0 mph 68% 0.00 in 14 W/m2
16:28 44.1 °F 33.8 °F 30.08 in NW 4.0 mph 6.0 mph 67% 0.00 in 12 W/m2
16:34 43.9 °F 33.6 °F 30.08 in NNW 4.0 mph 6.0 mph 67% 0.00 in 9 W/m2
16:40 43.6 °F 33.4 °F 30.08 in WNW 4.0 mph 4.0 mph 67% 0.00 in 7 W/m2
16:46 43.5 °F 33.6 °F 30.08 in WNW 3.0 mph 4.0 mph 68% 0.00 in 5 W/m2
16:52 43.3 °F 33.4 °F 30.09 in WNW 2.0 mph 2.0 mph 68% 0.00 in 0 W/m2
16:58 43.1 °F 33.3 °F 30.09 in WNW 3.0 mph 5.0 mph 68% 0.00 in 0 W/m2
17:04 43.1 °F 33.3 °F 30.10 in West 3.0 mph 7.0 mph 68% 0.00 in 0 W/m2
17:10 43.1 °F 33.3 °F 30.10 in NW 3.0 mph 6.0 mph 68% 0.00 in 0 W/m2
17:16 43.0 °F 32.8 °F 30.10 in WNW 4.0 mph 6.0 mph 67% 0.00 in 0 W/m2
17:22 42.6 °F 32.8 °F 30.11 in NW 2.0 mph 3.0 mph 68% 0.00 in 0 W/m2
17:28 42.3 °F 32.8 °F 30.11 in NW 2.0 mph 3.0 mph 69% 0.00 in 0 W/m2
17:34 42.2 °F 32.8 °F 30.11 in NW 2.0 mph 3.0 mph 69% 0.00 in 0 W/m2
17:40 42.1 °F 33.0 °F 30.11 in NW 2.0 mph 2.0 mph 70% 0.00 in 0 W/m2
17:46 41.8 °F 32.7 °F 30.12 in NW 2.0 mph 3.0 mph 70% 0.00 in 0 W/m2
17:52 42.0 °F 32.9 °F 30.13 in NW 2.0 mph 5.0 mph 70% 0.00 in 0 W/m2
17:58 42.0 °F 32.6 °F 30.13 in NW 3.0 mph 5.0 mph 69% 0.00 in 0 W/m2
18:04 42.1 °F 32.7 °F 30.13 in NW 2.0 mph 4.0 mph 69% 0.00 in 0 W/m2
18:10 42.1 °F 33.0 °F 30.13 in NW 1.0 mph 1.0 mph 70% 0.00 in 0 W/m2
18:16 42.1 °F 32.7 °F 30.13 in NW 1.0 mph 2.0 mph 69% 0.00 in 0 W/m2
18:22 42.1 °F 32.7 °F 30.14 in NW 1.0 mph 2.0 mph 69% 0.00 in 0 W/m2
18:28 42.2 °F 32.8 °F 30.14 in NW 2.0 mph 6.0 mph 69% 0.00 in 0 W/m2
18:36 42.2 °F 33.1 °F 30.15 in NW 2.0 mph 2.0 mph 70% 0.00 in 0 W/m2
18:42 42.1 °F 33.0 °F 30.14 in NW 1.0 mph 1.0 mph 70% 0.00 in 0 W/m2
18:48 42.1 °F 32.7 °F 30.15 in WNW 2.0 mph 3.0 mph 69% 0.00 in 0 W/m2
18:54 41.9 °F 32.5 °F 30.15 in WNW 2.0 mph 2.0 mph 69% 0.00 in 0 W/m2
19:00 41.9 °F 32.1 °F 30.15 in WNW 1.0 mph 1.0 mph 68% 0.00 in 0 W/m2
19:06 42.1 °F 31.9 °F 30.16 in WNW 1.0 mph 1.0 mph 67% 0.00 in 0 W/m2
19:12 42.3 °F 32.1 °F 30.16 in NNW 1.0 mph 6.0 mph 67% 0.00 in 0 W/m2
19:18 42.5 °F 31.9 °F 30.16 in West 2.0 mph 6.0 mph 66% 0.00 in 0 W/m2
19:24 42.5 °F 31.9 °F 30.16 in WNW 2.0 mph 3.0 mph 66% 0.00 in 0 W/m2
19:30 42.5 °F 31.9 °F 30.16 in NW 2.0 mph 2.0 mph 66% 0.00 in 0 W/m2
19:36 42.5 °F 31.9 °F 30.16 in NW 1.0 mph 2.0 mph 66% 0.00 in 0 W/m2
19:42 42.5 °F 31.9 °F 30.16 in NNW 1.0 mph 3.0 mph 66% 0.00 in 0 W/m2
19:48 42.5 °F 31.9 °F 30.16 in NNW 1.0 mph 4.0 mph 66% 0.00 in 0 W/m2
19:54 42.5 °F 32.3 °F 30.16 in NW 1.0 mph 1.0 mph 67% 0.00 in 0 W/m2
20:00 42.5 °F 32.3 °F 30.16 in NNW 2.0 mph 2.0 mph 67% 0.00 in 0 W/m2
20:06 42.4 °F 32.2 °F 30.17 in WNW 2.0 mph 2.0 mph 67% 0.00 in 0 W/m2
20:12 42.4 °F 32.2 °F 30.16 in WNW 1.0 mph 2.0 mph 67% 0.00 in 0 W/m2
20:18 42.4 °F 31.8 °F 30.17 in NNW 2.0 mph 5.0 mph 66% 0.00 in 0 W/m2
20:24 42.4 °F 31.8 °F 30.17 in NNW 2.0 mph 2.0 mph 66% 0.00 in 0 W/m2
20:30 42.3 °F 32.5 °F 30.17 in NNW 1.0 mph 1.0 mph 68% 0.00 in 0 W/m2
20:36 42.2 °F 32.0 °F 30.17 in NNW 1.0 mph 3.0 mph 67% 0.00 in 0 W/m2
20:42 42.2 °F 31.6 °F 30.17 in NNW 1.0 mph 2.0 mph 66% 0.00 in 0 W/m2
20:48 42.2 °F 32.0 °F 30.17 in NNW 1.0 mph 3.0 mph 67% 0.00 in 0 W/m2
20:54 42.2 °F 32.0 °F 30.17 in NW 1.0 mph 2.0 mph 67% 0.00 in 0 W/m2
21:00 42.1 °F 31.2 °F 30.18 in NW 2.0 mph 2.0 mph 65% 0.00 in 0 W/m2
21:06 42.1 °F 31.2 °F 30.18 in NW 2.0 mph 2.0 mph 65% 0.00 in 0 W/m2
21:12 42.0 °F 31.5 °F 30.18 in NW 1.0 mph 2.0 mph 66% 0.00 in 0 W/m2
21:18 41.9 °F 31.4 °F 30.18 in NW 1.0 mph 2.0 mph 66% 0.00 in 0 W/m2
21:24 41.9 °F 31.7 °F 30.18 in NW 1.0 mph 1.0 mph 67% 0.00 in 0 W/m2
21:30 41.8 °F 31.6 °F 30.18 in Calm   1.0 mph 67% 0.00 in 0 W/m2
21:36 41.7 °F 31.5 °F 30.18 in NW 1.0 mph 3.0 mph 67% 0.00 in 0 W/m2
21:42 41.7 °F 31.9 °F 30.18 in NW 1.0 mph 1.0 mph 68% 0.00 in 0 W/m2
21:48 41.7 °F 31.5 °F 30.18 in NW 1.0 mph 2.0 mph 67% 0.00 in 0 W/m2
21:54 41.7 °F 31.2 °F 30.18 in NW 1.0 mph 1.0 mph 66% 0.00 in 0 W/m2
22:00 41.6 °F 31.4 °F 30.18 in Calm   1.0 mph 67% 0.00 in 0 W/m2
22:06 41.5 °F 31.4 °F 30.19 in NW 1.0 mph 1.0 mph 67% 0.00 in 0 W/m2
22:16 41.4 °F 31.6 °F 30.19 in NW 1.0 mph 3.0 mph 68% 0.00 in 0 W/m2
22:22 41.3 °F 31.2 °F 30.19 in NW 1.0 mph 2.0 mph 67% 0.00 in 0 W/m2
22:28 41.3 °F 31.5 °F 30.19 in NW 1.0 mph 2.0 mph 68% 0.00 in 0 W/m2
22:34 41.3 °F 31.5 °F 30.19 in NW 1.0 mph 1.0 mph 68% 0.00 in 0 W/m2
22:40 41.2 °F 31.1 °F 30.19 in NW 1.0 mph 1.0 mph 67% 0.00 in 0 W/m2
22:46 41.1 °F 31.0 °F 30.19 in WNW 1.0 mph 4.0 mph 67% 0.00 in 0 W/m2
22:52 41.0 °F 30.9 °F 30.19 in WNW 1.0 mph 2.0 mph 67% 0.00 in 0 W/m2
22:58 41.0 °F 30.9 °F 30.19 in WNW 1.0 mph 2.0 mph 67% 0.00 in 0 W/m2
23:04 40.9 °F 30.4 °F 30.19 in NW 2.0 mph 3.0 mph 66% 0.00 in 0 W/m2
23:10 40.9 °F 30.4 °F 30.19 in NW 2.0 mph 2.0 mph 66% 0.00 in 0 W/m2
23:16 40.8 °F 30.7 °F 30.19 in NW 1.0 mph 2.0 mph 67% 0.00 in 0 W/m2
23:22 40.7 °F 30.6 °F 30.19 in WNW 1.0 mph 1.0 mph 67% 0.00 in 0 W/m2
23:28 40.6 °F 30.5 °F 30.19 in WNW 2.0 mph 3.0 mph 67% 0.00 in 0 W/m2
23:34 40.5 °F 30.8 °F 30.19 in NNW 2.0 mph 3.0 mph 68% 0.00 in 0 W/m2
23:40 40.5 °F 30.8 °F 30.19 in NW 2.0 mph 2.0 mph 68% 0.00 in 0 W/m2
23:46 40.4 °F 30.7 °F 30.19 in WNW 1.0 mph 3.0 mph 68% 0.00 in 0 W/m2
23:52 40.2 °F 30.5 °F 30.20 in NNW 2.0 mph 6.0 mph 68% 0.00 in 0 W/m2
23:58 40.1 °F 30.4 °F 30.20 in NNW 2.0 mph 6.0 mph 68% 0.00 in 0 W/m2
Country Meadow, Clay, NY, USA
Compliments of Weather Underground - 2 mb